AAL2121 KORD-KBOS
Flight info
| Callsign | AAL2121 |
|---|---|
| Flight time | 1h 48m |
| Altitude | 37000 |
| Route | EBAKE WISMO POSTS PADDE SVM DKK PONCT JFUND2 |
| Aircraft | A20N/M-SDE2E3FGHIRWXY/LB1 |
Departure
| Time | 2026-05-04 21:53 |
|---|---|
| Airport | Chicago O'Hare International Airport (KORD) |
Arrival
| Time | 2026-05-04 23:42 |
|---|---|
| Airport | Boston Logan International Airport (KBOS) |
| Time | Latitude | Longitude | Altitude | Speed | Heading |
|---|---|---|---|---|---|
| 2026-05-04 21:28 | 41.97637 | -87.89688 | 674 ft | 0 kts | 28° |
| 2026-05-04 21:44 | 41.97632 | -87.89692 | 672 ft | 3 kts | 28° |
| 2026-05-04 21:44 | 41.97615 | -87.89704 | 671 ft | 3 kts | 28° |
| 2026-05-04 21:44 | 41.97599 | -87.89716 | 674 ft | 3 kts | 47° |
| 2026-05-04 21:44 | 41.97590 | -87.89739 | 674 ft | 3 kts | 88° |
| 2026-05-04 21:45 | 41.97592 | -87.89760 | 674 ft | 0 kts | 112° |
| 2026-05-04 21:47 | 41.97592 | -87.89759 | 674 ft | 1 kts | 111° |
| 2026-05-04 21:48 | 41.97587 | -87.89740 | 674 ft | 2 kts | 109° |
| 2026-05-04 21:48 | 41.97582 | -87.89719 | 674 ft | 2 kts | 109° |
| 2026-05-04 21:48 | 41.97576 | -87.89696 | 669 ft | 3 kts | 108° |
| 2026-05-04 21:48 | 41.97569 | -87.89665 | 674 ft | 4 kts | 108° |
| 2026-05-04 21:49 | 41.97564 | -87.89626 | 674 ft | 5 kts | 89° |
| 2026-05-04 21:49 | 41.97573 | -87.89586 | 674 ft | 5 kts | 64° |
| 2026-05-04 21:49 | 41.97589 | -87.89547 | 674 ft | 5 kts | 51° |
| 2026-05-04 21:49 | 41.97638 | -87.89523 | 674 ft | 11 kts | 3° |
| 2026-05-04 21:50 | 41.97730 | -87.89526 | 674 ft | 13 kts | 359° |
| 2026-05-04 21:50 | 41.97820 | -87.89526 | 674 ft | 13 kts | 360° |
| 2026-05-04 21:50 | 41.97917 | -87.89521 | 674 ft | 15 kts | 15° |
| 2026-05-04 21:50 | 41.97996 | -87.89441 | 673 ft | 14 kts | 48° |
| 2026-05-04 21:51 | 41.98057 | -87.89348 | 673 ft | 10 kts | 50° |
| 2026-05-04 21:51 | 41.98095 | -87.89332 | 673 ft | 6 kts | 348° |
| 2026-05-04 21:51 | 41.98144 | -87.89380 | 673 ft | 12 kts | 314° |
| 2026-05-04 21:51 | 41.98216 | -87.89481 | 673 ft | 18 kts | 313° |
| 2026-05-04 21:52 | 41.98306 | -87.89601 | 672 ft | 16 kts | 319° |
| 2026-05-04 21:52 | 41.98369 | -87.89684 | 672 ft | 12 kts | 300° |
| 2026-05-04 21:52 | 41.98390 | -87.89808 | 671 ft | 17 kts | 272° |
| 2026-05-04 21:52 | 41.98388 | -87.90180 | 670 ft | 70 kts | 269° |
| 2026-05-04 21:53 | 41.98389 | -87.91101 | 671 ft | 125 kts | 270° |
| 2026-05-04 21:53 | 41.98394 | -87.92463 | 760 ft | 157 kts | 266° |
| 2026-05-04 21:53 | 41.98459 | -87.93843 | 1504 ft | 145 kts | 277° |
| 2026-05-04 21:53 | 41.98960 | -87.94989 | 2201 ft | 147 kts | 316° |
| 2026-05-04 21:54 | 42.00006 | -87.95409 | 2621 ft | 181 kts | 357° |
| 2026-05-04 21:54 | 42.01315 | -87.94765 | 2945 ft | 222 kts | 27° |
| 2026-05-04 21:54 | 42.02649 | -87.93446 | 3220 ft | 255 kts | 35° |
| 2026-05-04 21:54 | 42.03983 | -87.91670 | 3525 ft | 286 kts | 54° |
| 2026-05-04 21:55 | 42.05001 | -87.89333 | 4309 ft | 291 kts | 62° |
| 2026-05-04 21:55 | 42.05857 | -87.86837 | 5109 ft | 298 kts | 67° |
| 2026-05-04 21:55 | 42.06618 | -87.84207 | 5964 ft | 302 kts | 69° |
| 2026-05-04 21:55 | 42.07326 | -87.81548 | 6893 ft | 304 kts | 70° |
| 2026-05-04 21:56 | 42.08030 | -87.78851 | 7817 ft | 307 kts | 70° |
| 2026-05-04 21:56 | 42.08749 | -87.76124 | 8753 ft | 310 kts | 69° |
| 2026-05-04 21:56 | 42.09486 | -87.73387 | 9741 ft | 313 kts | 69° |
| 2026-05-04 21:56 | 42.10246 | -87.70611 | 10434 ft | 324 kts | 68° |
| 2026-05-04 21:57 | 42.11052 | -87.67708 | 10751 ft | 347 kts | 68° |
| 2026-05-04 21:57 | 42.11929 | -87.64567 | 11051 ft | 369 kts | 68° |
| 2026-05-04 21:57 | 42.12846 | -87.61283 | 11601 ft | 380 kts | 68° |
| 2026-05-04 21:57 | 42.13782 | -87.57916 | 12312 ft | 387 kts | 68° |
| 2026-05-04 21:58 | 42.14733 | -87.54487 | 13043 ft | 394 kts | 68° |
| 2026-05-04 21:58 | 42.15698 | -87.51005 | 13742 ft | 400 kts | 68° |
| 2026-05-04 21:58 | 42.16672 | -87.47477 | 14441 ft | 404 kts | 68° |
| 2026-05-04 21:58 | 42.17646 | -87.43949 | 15150 ft | 408 kts | 68° |
| 2026-05-04 21:59 | 42.18638 | -87.40349 | 15875 ft | 412 kts | 68° |
| 2026-05-04 21:59 | 42.19642 | -87.36704 | 16569 ft | 416 kts | 68° |
| 2026-05-04 21:59 | 42.20653 | -87.33026 | 17245 ft | 421 kts | 68° |
| 2026-05-04 21:59 | 42.21675 | -87.29304 | 17918 ft | 425 kts | 68° |
| 2026-05-04 22:00 | 42.22706 | -87.25542 | 18479 ft | 429 kts | 68° |
| 2026-05-04 22:00 | 42.23742 | -87.21754 | 19070 ft | 433 kts | 68° |
| 2026-05-04 22:00 | 42.24788 | -87.17928 | 19640 ft | 436 kts | 68° |
| 2026-05-04 22:00 | 42.25841 | -87.14069 | 20222 ft | 440 kts | 68° |
| 2026-05-04 22:01 | 42.26892 | -87.10178 | 20791 ft | 443 kts | 70° |
| 2026-05-04 22:01 | 42.27673 | -87.06125 | 21336 ft | 448 kts | 79° |
| 2026-05-04 22:01 | 42.28091 | -87.01937 | 21920 ft | 452 kts | 83° |
| 2026-05-04 22:01 | 42.28372 | -86.97700 | 22450 ft | 456 kts | 86° |
| 2026-05-04 22:02 | 42.28570 | -86.93411 | 22996 ft | 459 kts | 87° |
| 2026-05-04 22:02 | 42.28729 | -86.89088 | 23464 ft | 463 kts | 87° |
| 2026-05-04 22:02 | 42.28875 | -86.84730 | 23906 ft | 465 kts | 87° |
| 2026-05-04 22:02 | 42.29023 | -86.80357 | 24357 ft | 468 kts | 87° |
| 2026-05-04 22:03 | 42.29178 | -86.75955 | 24790 ft | 470 kts | 87° |
| 2026-05-04 22:03 | 42.29340 | -86.71531 | 25228 ft | 473 kts | 87° |
| 2026-05-04 22:03 | 42.29506 | -86.67087 | 25648 ft | 475 kts | 87° |
| 2026-05-04 22:03 | 42.29676 | -86.62624 | 26054 ft | 477 kts | 87° |
| 2026-05-04 22:04 | 42.29845 | -86.58148 | 26447 ft | 480 kts | 87° |
| 2026-05-04 22:04 | 42.30015 | -86.53630 | 26847 ft | 482 kts | 87° |
| 2026-05-04 22:04 | 42.30182 | -86.49098 | 27230 ft | 484 kts | 87° |
| 2026-05-04 22:04 | 42.30349 | -86.44543 | 27580 ft | 487 kts | 87° |
| 2026-05-04 22:05 | 42.30514 | -86.39970 | 27936 ft | 489 kts | 87° |
| 2026-05-04 22:05 | 42.30679 | -86.35376 | 28292 ft | 491 kts | 87° |
| 2026-05-04 22:05 | 42.30843 | -86.30748 | 28679 ft | 493 kts | 87° |
| 2026-05-04 22:05 | 42.31005 | -86.26115 | 29033 ft | 495 kts | 87° |
| 2026-05-04 22:06 | 42.31166 | -86.21460 | 29362 ft | 497 kts | 87° |
| 2026-05-04 22:06 | 42.31325 | -86.16797 | 29771 ft | 497 kts | 87° |
| 2026-05-04 22:06 | 42.31482 | -86.12144 | 30187 ft | 496 kts | 87° |
| 2026-05-04 22:06 | 42.31594 | -86.07496 | 30565 ft | 495 kts | 89° |
| 2026-05-04 22:07 | 42.31599 | -86.02841 | 30942 ft | 494 kts | 91° |
| 2026-05-04 22:07 | 42.31543 | -85.98205 | 31307 ft | 493 kts | 91° |
| 2026-05-04 22:07 | 42.31464 | -85.93570 | 31683 ft | 493 kts | 91° |
| 2026-05-04 22:07 | 42.31381 | -85.88960 | 32036 ft | 492 kts | 91° |
| 2026-05-04 22:08 | 42.31304 | -85.84338 | 32379 ft | 492 kts | 91° |
| 2026-05-04 22:08 | 42.31232 | -85.79708 | 32700 ft | 491 kts | 91° |
| 2026-05-04 22:08 | 42.31166 | -85.75097 | 33021 ft | 491 kts | 91° |
| 2026-05-04 22:08 | 42.31103 | -85.70496 | 33358 ft | 490 kts | 91° |
| 2026-05-04 22:09 | 42.31040 | -85.65899 | 33665 ft | 489 kts | 91° |
| 2026-05-04 22:09 | 42.30976 | -85.61298 | 33927 ft | 489 kts | 91° |
| 2026-05-04 22:09 | 42.30911 | -85.56708 | 34187 ft | 489 kts | 91° |
| 2026-05-04 22:09 | 42.30843 | -85.52120 | 34433 ft | 488 kts | 91° |
| 2026-05-04 22:10 | 42.30774 | -85.47538 | 34679 ft | 488 kts | 91° |
| 2026-05-04 22:10 | 42.30703 | -85.42951 | 34906 ft | 488 kts | 91° |
| 2026-05-04 22:10 | 42.30629 | -85.38365 | 35145 ft | 488 kts | 91° |
| 2026-05-04 22:10 | 42.30553 | -85.33791 | 35376 ft | 488 kts | 91° |
| 2026-05-04 22:11 | 42.30475 | -85.29208 | 35590 ft | 488 kts | 91° |
| 2026-05-04 22:11 | 42.30396 | -85.24633 | 35805 ft | 488 kts | 91° |
| 2026-05-04 22:11 | 42.30315 | -85.20049 | 36025 ft | 488 kts | 91° |
| 2026-05-04 22:11 | 42.30233 | -85.15484 | 36225 ft | 487 kts | 91° |
| 2026-05-04 22:12 | 42.30148 | -85.10908 | 36432 ft | 487 kts | 91° |
| 2026-05-04 22:12 | 42.30062 | -85.06335 | 36587 ft | 488 kts | 91° |
| 2026-05-04 22:12 | 42.29971 | -85.01740 | 36609 ft | 488 kts | 91° |
| 2026-05-04 22:13 | 42.29761 | -84.92614 | 36607 ft | 486 kts | 91° |
| 2026-05-04 22:13 | 42.29536 | -84.83498 | 36613 ft | 485 kts | 92° |
| 2026-05-04 22:14 | 42.29305 | -84.74387 | 36619 ft | 485 kts | 92° |
| 2026-05-04 22:14 | 42.29069 | -84.65280 | 36621 ft | 485 kts | 92° |
| 2026-05-04 22:15 | 42.28827 | -84.56183 | 36619 ft | 485 kts | 92° |
| 2026-05-04 22:15 | 42.28825 | -84.47080 | 36617 ft | 484 kts | 81° |
| 2026-05-04 22:16 | 42.29870 | -84.38177 | 36619 ft | 483 kts | 78° |
| 2026-05-04 22:16 | 42.31131 | -84.29270 | 36626 ft | 483 kts | 77° |
| 2026-05-04 22:17 | 42.32419 | -84.20408 | 36629 ft | 483 kts | 77° |
| 2026-05-04 22:17 | 42.33690 | -84.11496 | 36638 ft | 483 kts | 77° |
| 2026-05-04 22:18 | 42.34942 | -84.02570 | 36638 ft | 483 kts | 77° |
| 2026-05-04 22:18 | 42.36180 | -83.93651 | 36630 ft | 483 kts | 77° |
| 2026-05-04 22:19 | 42.37421 | -83.84663 | 36627 ft | 483 kts | 78° |
| 2026-05-04 22:19 | 42.38648 | -83.75722 | 36634 ft | 483 kts | 78° |
| 2026-05-04 22:20 | 42.39662 | -83.68295 | 36636 ft | 483 kts | 78° |
| 2026-05-04 22:20 | 42.40766 | -83.59323 | 36645 ft | 484 kts | 84° |
| 2026-05-04 22:21 | 42.41238 | -83.50238 | 36636 ft | 485 kts | 85° |
| 2026-05-04 22:21 | 42.41576 | -83.41122 | 36641 ft | 485 kts | 86° |
| 2026-05-04 22:22 | 42.41881 | -83.32012 | 36618 ft | 485 kts | 86° |
| 2026-05-04 22:22 | 42.42190 | -83.22884 | 36623 ft | 485 kts | 86° |
| 2026-05-04 22:23 | 42.42499 | -83.13778 | 36627 ft | 485 kts | 86° |
| 2026-05-04 22:23 | 42.42801 | -83.04743 | 36627 ft | 485 kts | 86° |
| 2026-05-04 22:24 | 42.43103 | -82.95492 | 36628 ft | 485 kts | 86° |
| 2026-05-04 22:24 | 42.43392 | -82.86381 | 36628 ft | 484 kts | 86° |
| 2026-05-04 22:25 | 42.43674 | -82.77280 | 36625 ft | 484 kts | 86° |
| 2026-05-04 22:25 | 42.43949 | -82.68168 | 36612 ft | 484 kts | 86° |
| 2026-05-04 22:26 | 42.44217 | -82.59051 | 36615 ft | 485 kts | 86° |
| 2026-05-04 22:26 | 42.44478 | -82.49943 | 36631 ft | 485 kts | 86° |
| 2026-05-04 22:27 | 42.44732 | -82.40813 | 36647 ft | 485 kts | 86° |
| 2026-05-04 22:27 | 42.44978 | -82.31688 | 36664 ft | 485 kts | 86° |
| 2026-05-04 22:28 | 42.45218 | -82.22544 | 36665 ft | 485 kts | 86° |
| 2026-05-04 22:28 | 42.45449 | -82.13416 | 36664 ft | 485 kts | 86° |
| 2026-05-04 22:29 | 42.45674 | -82.04278 | 36660 ft | 486 kts | 86° |
| 2026-05-04 22:29 | 42.45892 | -81.95133 | 36669 ft | 486 kts | 86° |
| 2026-05-04 22:30 | 42.46103 | -81.85997 | 36666 ft | 486 kts | 87° |
| 2026-05-04 22:30 | 42.46306 | -81.76842 | 36672 ft | 486 kts | 87° |
| 2026-05-04 22:31 | 42.46502 | -81.67694 | 36674 ft | 486 kts | 87° |
| 2026-05-04 22:31 | 42.46691 | -81.58548 | 36682 ft | 486 kts | 87° |
| 2026-05-04 22:32 | 42.46872 | -81.49395 | 36684 ft | 486 kts | 87° |
| 2026-05-04 22:32 | 42.47046 | -81.40249 | 36686 ft | 486 kts | 87° |
| 2026-05-04 22:33 | 42.47214 | -81.31086 | 36687 ft | 486 kts | 87° |
| 2026-05-04 22:33 | 42.47373 | -81.21926 | 36691 ft | 486 kts | 87° |
| 2026-05-04 22:34 | 42.47526 | -81.12769 | 36689 ft | 487 kts | 87° |
| 2026-05-04 22:34 | 42.47671 | -81.03603 | 36700 ft | 487 kts | 87° |
| 2026-05-04 22:35 | 42.47809 | -80.94436 | 36692 ft | 487 kts | 88° |
| 2026-05-04 22:35 | 42.47939 | -80.85278 | 36699 ft | 487 kts | 88° |
| 2026-05-04 22:36 | 42.48063 | -80.76109 | 36695 ft | 487 kts | 88° |
| 2026-05-04 22:36 | 42.48179 | -80.66943 | 36699 ft | 487 kts | 88° |
| 2026-05-04 22:37 | 42.48288 | -80.57774 | 36701 ft | 487 kts | 88° |
| 2026-05-04 22:37 | 42.48389 | -80.48612 | 36701 ft | 487 kts | 88° |
| 2026-05-04 22:38 | 42.48483 | -80.39446 | 36700 ft | 487 kts | 88° |
| 2026-05-04 22:38 | 42.48571 | -80.30227 | 36708 ft | 487 kts | 88° |
| 2026-05-04 22:39 | 42.48650 | -80.21112 | 36705 ft | 487 kts | 88° |
| 2026-05-04 22:39 | 42.48722 | -80.11945 | 36708 ft | 487 kts | 88° |
| 2026-05-04 22:40 | 42.48787 | -80.02764 | 36708 ft | 487 kts | 88° |
| 2026-05-04 22:40 | 42.48845 | -79.93531 | 36720 ft | 487 kts | 88° |
| 2026-05-04 22:41 | 42.48895 | -79.84350 | 36719 ft | 487 kts | 88° |
| 2026-05-04 22:41 | 42.48939 | -79.75169 | 36724 ft | 488 kts | 88° |
| 2026-05-04 22:42 | 42.48974 | -79.66038 | 36732 ft | 488 kts | 88° |
| 2026-05-04 22:42 | 42.49003 | -79.56806 | 36735 ft | 486 kts | 89° |
| 2026-05-04 22:43 | 42.49024 | -79.47656 | 36732 ft | 486 kts | 89° |
| 2026-05-04 22:43 | 42.49038 | -79.38498 | 36731 ft | 486 kts | 89° |
| 2026-05-04 22:44 | 42.49051 | -79.29352 | 36729 ft | 486 kts | 87° |
| 2026-05-04 22:44 | 42.49572 | -79.20234 | 36732 ft | 485 kts | 83° |
| 2026-05-04 22:45 | 42.50192 | -79.11141 | 36732 ft | 485 kts | 83° |
| 2026-05-04 22:45 | 42.51128 | -78.97508 | 36738 ft | 484 kts | 83° |
| 2026-05-04 22:46 | 42.51745 | -78.88417 | 36739 ft | 484 kts | 83° |
| 2026-05-04 22:46 | 42.52355 | -78.79321 | 36747 ft | 484 kts | 83° |
| 2026-05-04 22:47 | 42.52959 | -78.70220 | 36749 ft | 485 kts | 83° |
| 2026-05-04 22:47 | 42.53555 | -78.61128 | 36735 ft | 485 kts | 83° |
| 2026-05-04 22:48 | 42.54144 | -78.52023 | 36745 ft | 485 kts | 83° |
| 2026-05-04 22:48 | 42.54727 | -78.42906 | 36755 ft | 485 kts | 83° |
| 2026-05-04 22:49 | 42.55302 | -78.33793 | 36757 ft | 485 kts | 84° |
| 2026-05-04 22:49 | 42.55871 | -78.24670 | 36758 ft | 486 kts | 84° |
| 2026-05-04 22:50 | 42.56432 | -78.15537 | 36750 ft | 486 kts | 84° |
| 2026-05-04 22:50 | 42.56987 | -78.06401 | 36744 ft | 486 kts | 84° |
| 2026-05-04 22:51 | 42.57537 | -77.97217 | 36737 ft | 486 kts | 84° |
| 2026-05-04 22:51 | 42.58077 | -77.88082 | 36732 ft | 486 kts | 84° |
| 2026-05-04 22:52 | 42.58606 | -77.79000 | 36729 ft | 486 kts | 84° |
| 2026-05-04 22:52 | 42.59131 | -77.69869 | 36733 ft | 486 kts | 84° |
| 2026-05-04 22:53 | 42.59649 | -77.60726 | 36728 ft | 486 kts | 84° |
| 2026-05-04 22:53 | 42.60160 | -77.51584 | 36735 ft | 486 kts | 84° |
| 2026-05-04 22:54 | 42.60663 | -77.42447 | 36736 ft | 486 kts | 84° |
| 2026-05-04 22:54 | 42.61160 | -77.33289 | 36754 ft | 486 kts | 84° |
| 2026-05-04 22:55 | 42.61649 | -77.24145 | 36745 ft | 486 kts | 84° |
| 2026-05-04 22:55 | 42.62131 | -77.14995 | 36758 ft | 486 kts | 85° |
| 2026-05-04 22:56 | 42.62605 | -77.05849 | 36744 ft | 486 kts | 85° |
| 2026-05-04 22:56 | 42.62995 | -76.98232 | 36747 ft | 486 kts | 85° |
| 2026-05-04 22:57 | 42.63459 | -76.89018 | 36749 ft | 486 kts | 85° |
| 2026-05-04 22:57 | 42.63913 | -76.79864 | 36745 ft | 486 kts | 85° |
| 2026-05-04 22:58 | 42.64357 | -76.70756 | 36761 ft | 486 kts | 85° |
| 2026-05-04 22:58 | 42.64796 | -76.61601 | 36759 ft | 486 kts | 85° |
| 2026-05-04 22:59 | 42.65229 | -76.52436 | 36765 ft | 486 kts | 85° |
| 2026-05-04 22:59 | 42.65653 | -76.43276 | 36764 ft | 486 kts | 85° |
| 2026-05-04 23:00 | 42.66071 | -76.34104 | 36765 ft | 486 kts | 85° |
| 2026-05-04 23:00 | 42.66482 | -76.24926 | 36764 ft | 487 kts | 86° |
| 2026-05-04 23:01 | 42.66886 | -76.15744 | 36767 ft | 487 kts | 86° |
| 2026-05-04 23:01 | 42.67281 | -76.06573 | 36766 ft | 487 kts | 86° |
| 2026-05-04 23:02 | 42.67670 | -75.97375 | 36769 ft | 487 kts | 86° |
| 2026-05-04 23:02 | 42.68053 | -75.88177 | 36771 ft | 487 kts | 86° |
| 2026-05-04 23:03 | 42.68428 | -75.78979 | 36775 ft | 488 kts | 86° |
| 2026-05-04 23:03 | 42.68795 | -75.69776 | 36774 ft | 487 kts | 86° |
| 2026-05-04 23:04 | 42.69155 | -75.60573 | 36777 ft | 487 kts | 86° |
| 2026-05-04 23:04 | 42.69507 | -75.51374 | 36778 ft | 488 kts | 86° |
| 2026-05-04 23:05 | 42.69853 | -75.42158 | 36781 ft | 488 kts | 86° |
| 2026-05-04 23:05 | 42.70192 | -75.32949 | 36781 ft | 488 kts | 86° |
| 2026-05-04 23:06 | 42.70522 | -75.23746 | 36786 ft | 487 kts | 87° |
| 2026-05-04 23:06 | 42.70845 | -75.14545 | 36793 ft | 487 kts | 87° |
| 2026-05-04 23:07 | 42.71160 | -75.05355 | 36800 ft | 487 kts | 87° |
| 2026-05-04 23:07 | 42.71468 | -74.96152 | 36799 ft | 487 kts | 87° |
| 2026-05-04 23:08 | 42.71769 | -74.86952 | 36801 ft | 487 kts | 87° |
| 2026-05-04 23:08 | 42.72063 | -74.77758 | 36799 ft | 487 kts | 87° |
| 2026-05-04 23:09 | 42.72349 | -74.68548 | 36798 ft | 487 kts | 87° |
| 2026-05-04 23:09 | 42.72627 | -74.59352 | 36797 ft | 487 kts | 87° |
| 2026-05-04 23:10 | 42.72898 | -74.50151 | 36797 ft | 487 kts | 87° |
| 2026-05-04 23:10 | 42.73162 | -74.40955 | 36797 ft | 486 kts | 87° |
| 2026-05-04 23:11 | 42.73418 | -74.31766 | 36797 ft | 486 kts | 87° |
| 2026-05-04 23:11 | 42.73666 | -74.22596 | 36792 ft | 486 kts | 87° |
| 2026-05-04 23:12 | 42.73908 | -74.13405 | 36789 ft | 485 kts | 87° |
| 2026-05-04 23:12 | 42.74142 | -74.04230 | 36787 ft | 485 kts | 88° |
| 2026-05-04 23:13 | 42.74368 | -73.95061 | 36787 ft | 485 kts | 88° |
| 2026-05-04 23:13 | 42.74588 | -73.85848 | 36785 ft | 485 kts | 88° |
| 2026-05-04 23:14 | 42.74684 | -73.76678 | 36788 ft | 485 kts | 90° |
| 2026-05-04 23:14 | 42.74615 | -73.67505 | 36791 ft | 485 kts | 90° |
| 2026-05-04 23:15 | 42.74541 | -73.58384 | 36557 ft | 487 kts | 90° |
| 2026-05-04 23:15 | 42.74502 | -73.53709 | 36300 ft | 488 kts | 90° |
| 2026-05-04 23:15 | 42.74463 | -73.49153 | 36058 ft | 488 kts | 90° |
| 2026-05-04 23:16 | 42.74422 | -73.44535 | 35818 ft | 488 kts | 90° |
| 2026-05-04 23:16 | 42.74380 | -73.39924 | 35576 ft | 488 kts | 90° |
| 2026-05-04 23:16 | 42.74336 | -73.35310 | 35328 ft | 488 kts | 90° |
| 2026-05-04 23:16 | 42.74290 | -73.30696 | 35081 ft | 488 kts | 90° |
| 2026-05-04 23:17 | 42.74242 | -73.26070 | 34858 ft | 488 kts | 90° |
| 2026-05-04 23:17 | 42.74192 | -73.21469 | 34625 ft | 488 kts | 90° |
| 2026-05-04 23:17 | 42.74141 | -73.16843 | 34384 ft | 488 kts | 89° |
| 2026-05-04 23:17 | 42.74049 | -73.12232 | 34149 ft | 489 kts | 93° |
| 2026-05-04 23:18 | 42.73658 | -73.07644 | 33690 ft | 487 kts | 97° |
| 2026-05-04 23:18 | 42.73146 | -73.03073 | 32859 ft | 490 kts | 98° |
| 2026-05-04 23:18 | 42.72607 | -72.98488 | 32052 ft | 492 kts | 98° |
| 2026-05-04 23:18 | 42.72066 | -72.93896 | 31234 ft | 494 kts | 98° |
| 2026-05-04 23:19 | 42.71524 | -72.89279 | 30402 ft | 496 kts | 97° |
| 2026-05-04 23:19 | 42.70979 | -72.84638 | 29456 ft | 498 kts | 97° |
| 2026-05-04 23:19 | 42.70434 | -72.80000 | 28583 ft | 492 kts | 97° |
| 2026-05-04 23:19 | 42.69893 | -72.75427 | 28099 ft | 477 kts | 97° |
| 2026-05-04 23:20 | 42.69374 | -72.71050 | 27838 ft | 475 kts | 97° |
| 2026-05-04 23:20 | 42.68890 | -72.66582 | 27354 ft | 481 kts | 98° |
| 2026-05-04 23:20 | 42.68341 | -72.62097 | 26267 ft | 481 kts | 97° |
| 2026-05-04 23:20 | 42.67792 | -72.57653 | 25416 ft | 472 kts | 97° |
| 2026-05-04 23:21 | 42.67257 | -72.53316 | 24781 ft | 461 kts | 97° |
| 2026-05-04 23:21 | 42.66730 | -72.49027 | 24159 ft | 458 kts | 97° |
| 2026-05-04 23:21 | 42.66208 | -72.44768 | 23590 ft | 455 kts | 97° |
| 2026-05-04 23:21 | 42.65693 | -72.40575 | 23122 ft | 447 kts | 97° |
| 2026-05-04 23:22 | 42.65180 | -72.36417 | 22936 ft | 433 kts | 97° |
| 2026-05-04 23:22 | 42.64689 | -72.32427 | 22397 ft | 427 kts | 97° |
| 2026-05-04 23:22 | 42.64223 | -72.28475 | 21677 ft | 418 kts | 97° |
| 2026-05-04 23:22 | 42.63775 | -72.24611 | 21156 ft | 412 kts | 97° |
| 2026-05-04 23:23 | 42.63332 | -72.20785 | 20624 ft | 409 kts | 97° |
| 2026-05-04 23:23 | 42.62890 | -72.16982 | 20101 ft | 406 kts | 97° |
| 2026-05-04 23:23 | 42.62448 | -72.13199 | 19566 ft | 404 kts | 97° |
| 2026-05-04 23:23 | 42.62009 | -72.09447 | 19035 ft | 402 kts | 97° |
| 2026-05-04 23:24 | 42.61570 | -72.05712 | 18497 ft | 400 kts | 97° |
| 2026-05-04 23:24 | 42.61123 | -72.02002 | 17945 ft | 398 kts | 98° |
| 2026-05-04 23:24 | 42.60667 | -71.98308 | 17364 ft | 394 kts | 98° |
| 2026-05-04 23:24 | 42.60214 | -71.94659 | 16842 ft | 390 kts | 98° |
| 2026-05-04 23:25 | 42.59764 | -71.91047 | 16309 ft | 386 kts | 98° |
| 2026-05-04 23:25 | 42.59318 | -71.87473 | 15807 ft | 383 kts | 98° |
| 2026-05-04 23:25 | 42.58886 | -71.84013 | 15306 ft | 379 kts | 98° |
| 2026-05-04 23:25 | 42.58399 | -71.80508 | 14803 ft | 376 kts | 100° |
| 2026-05-04 23:26 | 42.57862 | -71.77046 | 14297 ft | 373 kts | 101° |
| 2026-05-04 23:26 | 42.57319 | -71.73618 | 13805 ft | 371 kts | 101° |
| 2026-05-04 23:26 | 42.56784 | -71.70253 | 13269 ft | 368 kts | 101° |
| 2026-05-04 23:26 | 42.56242 | -71.66842 | 12874 ft | 360 kts | 101° |
| 2026-05-04 23:27 | 42.55726 | -71.63605 | 12560 ft | 346 kts | 101° |
| 2026-05-04 23:27 | 42.55224 | -71.60456 | 12103 ft | 346 kts | 101° |
| 2026-05-04 23:27 | 42.54637 | -71.57302 | 11701 ft | 345 kts | 104° |
| 2026-05-04 23:27 | 42.53996 | -71.54163 | 11228 ft | 345 kts | 106° |
| 2026-05-04 23:28 | 42.53337 | -71.50999 | 11005 ft | 344 kts | 106° |
| 2026-05-04 23:28 | 42.52685 | -71.47878 | 10675 ft | 343 kts | 106° |
| 2026-05-04 23:28 | 42.52047 | -71.44818 | 10336 ft | 340 kts | 106° |
| 2026-05-04 23:28 | 42.51408 | -71.41753 | 10138 ft | 329 kts | 106° |
| 2026-05-04 23:29 | 42.50805 | -71.38863 | 9832 ft | 316 kts | 106° |
| 2026-05-04 23:29 | 42.50219 | -71.36016 | 9487 ft | 305 kts | 105° |
| 2026-05-04 23:29 | 42.49665 | -71.33251 | 9160 ft | 306 kts | 105° |
| 2026-05-04 23:29 | 42.49124 | -71.30535 | 8847 ft | 306 kts | 105° |
| 2026-05-04 23:30 | 42.48570 | -71.27761 | 8535 ft | 304 kts | 105° |
| 2026-05-04 23:30 | 42.48019 | -71.25003 | 8216 ft | 302 kts | 105° |
| 2026-05-04 23:30 | 42.47471 | -71.22264 | 7921 ft | 301 kts | 106° |
| 2026-05-04 23:30 | 42.46924 | -71.19538 | 7612 ft | 300 kts | 106° |
| 2026-05-04 23:31 | 42.46465 | -71.16790 | 7248 ft | 299 kts | 95° |
| 2026-05-04 23:31 | 42.46730 | -71.14034 | 6949 ft | 295 kts | 68° |
| 2026-05-04 23:31 | 42.47550 | -71.11512 | 6599 ft | 291 kts | 61° |
| 2026-05-04 23:31 | 42.48448 | -71.09115 | 6353 ft | 279 kts | 60° |
| 2026-05-04 23:32 | 42.49419 | -71.06924 | 6071 ft | 266 kts | 45° |
| 2026-05-04 23:32 | 42.50847 | -71.05486 | 5799 ft | 251 kts | 19° |
| 2026-05-04 23:32 | 42.52443 | -71.04611 | 5518 ft | 245 kts | 14° |
| 2026-05-04 23:32 | 42.54036 | -71.03845 | 5263 ft | 241 kts | 13° |
| 2026-05-04 23:33 | 42.55614 | -71.03094 | 5016 ft | 241 kts | 13° |
| 2026-05-04 23:33 | 42.57192 | -71.02336 | 4769 ft | 240 kts | 14° |
| 2026-05-04 23:33 | 42.58763 | -71.01557 | 4515 ft | 241 kts | 15° |
| 2026-05-04 23:33 | 42.60328 | -71.00759 | 4261 ft | 241 kts | 15° |
| 2026-05-04 23:34 | 42.61811 | -70.99720 | 4029 ft | 241 kts | 39° |
| 2026-05-04 23:34 | 42.62700 | -70.97893 | 4008 ft | 228 kts | 74° |
| 2026-05-04 23:34 | 42.62742 | -70.95798 | 3985 ft | 222 kts | 106° |
| 2026-05-04 23:34 | 42.62285 | -70.93800 | 3982 ft | 222 kts | 115° |
| 2026-05-04 23:35 | 42.61532 | -70.92032 | 3983 ft | 212 kts | 143° |
| 2026-05-04 23:35 | 42.60322 | -70.91117 | 3974 ft | 189 kts | 170° |
| 2026-05-04 23:35 | 42.59092 | -70.90678 | 3981 ft | 179 kts | 174° |
| 2026-05-04 23:35 | 42.57884 | -70.90502 | 3983 ft | 172 kts | 191° |
| 2026-05-04 23:36 | 42.56726 | -70.90768 | 3890 ft | 167 kts | 202° |
| 2026-05-04 23:36 | 42.55628 | -70.91244 | 3610 ft | 168 kts | 205° |
| 2026-05-04 23:36 | 42.54513 | -70.91779 | 3259 ft | 170 kts | 206° |
| 2026-05-04 23:36 | 42.53420 | -70.92306 | 3049 ft | 163 kts | 205° |
| 2026-05-04 23:37 | 42.52715 | -70.92646 | 2939 ft | 162 kts | 204° |
| 2026-05-04 23:37 | 42.51607 | -70.93185 | 2292 ft | 177 kts | 204° |
| 2026-05-04 23:37 | 42.50457 | -70.93744 | 2035 ft | 171 kts | 203° |
| 2026-05-04 23:37 | 42.49381 | -70.94267 | 1988 ft | 158 kts | 204° |
| 2026-05-04 23:38 | 42.48382 | -70.94750 | 1992 ft | 148 kts | 204° |
| 2026-05-04 23:38 | 42.47452 | -70.95198 | 1980 ft | 133 kts | 205° |
| 2026-05-04 23:38 | 42.46607 | -70.95606 | 1938 ft | 127 kts | 204° |
| 2026-05-04 23:38 | 42.45786 | -70.96004 | 1774 ft | 125 kts | 204° |
| 2026-05-04 23:39 | 42.44979 | -70.96396 | 1611 ft | 122 kts | 204° |
| 2026-05-04 23:39 | 42.44183 | -70.96782 | 1431 ft | 121 kts | 204° |
| 2026-05-04 23:39 | 42.43376 | -70.97174 | 1269 ft | 125 kts | 204° |
| 2026-05-04 23:39 | 42.42556 | -70.97573 | 1095 ft | 126 kts | 203° |
| 2026-05-04 23:40 | 42.41725 | -70.97975 | 930 ft | 127 kts | 204° |
| 2026-05-04 23:40 | 42.40888 | -70.98381 | 766 ft | 129 kts | 203° |
| 2026-05-04 23:40 | 42.40039 | -70.98792 | 615 ft | 129 kts | 202° |
| 2026-05-04 23:40 | 42.39194 | -70.99202 | 427 ft | 130 kts | 200° |
| 2026-05-04 23:41 | 42.38323 | -70.99618 | 216 ft | 135 kts | 201° |
| 2026-05-04 23:41 | 42.37445 | -71.00063 | 55 ft | 134 kts | 199° |
| 2026-05-04 23:41 | 42.36601 | -71.00469 | 32 ft | 122 kts | 197° |
| 2026-05-04 23:41 | 42.35923 | -71.00784 | 25 ft | 78 kts | 199° |
| 2026-05-04 23:42 | 42.35546 | -71.00969 | 28 ft | 50 kts | 200° |
| 2026-05-04 23:42 | 42.35286 | -71.01098 | 32 ft | 28 kts | 201° |
| 2026-05-04 23:42 | 42.35197 | -71.01183 | 33 ft | 9 kts | 271° |
| 2026-05-04 23:42 | 42.35233 | -71.01264 | 31 ft | 13 kts | 306° |
| 2026-05-04 23:43 | 42.35293 | -71.01380 | 28 ft | 16 kts | 305° |
| 2026-05-04 23:43 | 42.35327 | -71.01445 | 28 ft | 0 kts | 305° |
| 2026-05-04 23:43 | 42.35347 | -71.01483 | 28 ft | 14 kts | 305° |
| 2026-05-04 23:43 | 42.35428 | -71.01638 | 27 ft | 19 kts | 304° |
| 2026-05-04 23:44 | 42.35517 | -71.01719 | 29 ft | 15 kts | 359° |
| 2026-05-04 23:44 | 42.35624 | -71.01679 | 30 ft | 18 kts | 20° |
| 2026-05-04 23:44 | 42.35762 | -71.01609 | 30 ft | 23 kts | 21° |
| 2026-05-04 23:44 | 42.35881 | -71.01588 | 31 ft | 12 kts | 311° |
| 2026-05-04 23:45 | 42.35903 | -71.01690 | 32 ft | 11 kts | 282° |
| 2026-05-04 23:45 | 42.35925 | -71.01786 | 30 ft | 10 kts | 310° |
| 2026-05-04 23:45 | 42.35974 | -71.01791 | 29 ft | 3 kts | 13° |
| 2026-05-04 23:45 | 42.35984 | -71.01789 | 29 ft | 2 kts | 9° |